sensor_id;sensor_type;location;lat;lon;timestamp;pressure;altitude;pressure_sealevel;temperature;humidity
61086;BME280;46967;48.876;2.136;2022-12-18T00:02:08;102280.75;;;-2.55;79.68
61086;BME280;46967;48.876;2.136;2022-12-18T00:04:33;102283.28;;;-2.55;79.53
61086;BME280;46967;48.876;2.136;2022-12-18T00:06:58;102282.38;;;-2.56;79.44
61086;BME280;46967;48.876;2.136;2022-12-18T00:09:24;102294.38;;;-2.53;79.11
61086;BME280;46967;48.876;2.136;2022-12-18T00:11:49;102280.59;;;-2.58;78.91
61086;BME280;46967;48.876;2.136;2022-12-18T00:14:15;102292.34;;;-2.60;79.28
61086;BME280;46967;48.876;2.136;2022-12-18T00:16:43;102290.69;;;-2.60;78.85
61086;BME280;46967;48.876;2.136;2022-12-18T00:19:09;102292.41;;;-2.59;78.54
61086;BME280;46967;48.876;2.136;2022-12-18T00:21:35;102285.75;;;-2.57;78.59
61086;BME280;46967;48.876;2.136;2022-12-18T00:24:00;102284.69;;;-2.60;78.61
61086;BME280;46967;48.876;2.136;2022-12-18T00:26:29;102276.13;;;-2.62;78.04
61086;BME280;46967;48.876;2.136;2022-12-18T00:28:54;102277.69;;;-2.66;78.17
61086;BME280;46967;48.876;2.136;2022-12-18T00:31:24;102283.69;;;-2.64;77.96
61086;BME280;46967;48.876;2.136;2022-12-18T00:33:49;102280.06;;;-2.69;77.75
61086;BME280;46967;48.876;2.136;2022-12-18T00:36:18;102279.13;;;-2.71;77.71
61086;BME280;46967;48.876;2.136;2022-12-18T00:38:45;102270.47;;;-2.75;77.60
61086;BME280;46967;48.876;2.136;2022-12-18T00:41:11;102267.91;;;-2.75;77.08
61086;BME280;46967;48.876;2.136;2022-12-18T00:43:38;102273.81;;;-2.76;76.91
61086;BME280;46967;48.876;2.136;2022-12-18T00:46:04;102277.00;;;-2.80;76.93
61086;BME280;46967;48.876;2.136;2022-12-18T00:48:29;102280.28;;;-2.82;76.96
61086;BME280;46967;48.876;2.136;2022-12-18T00:50:55;102275.75;;;-2.88;77.31
61086;BME280;46967;48.876;2.136;2022-12-18T00:53:21;102270.44;;;-2.93;77.37
61086;BME280;46967;48.876;2.136;2022-12-18T00:55:46;102267.06;;;-2.93;77.98
61086;BME280;46967;48.876;2.136;2022-12-18T00:58:14;102260.00;;;-2.99;78.13
61086;BME280;46967;48.876;2.136;2022-12-18T01:00:39;102272.63;;;-3.00;77.93
61086;BME280;46967;48.876;2.136;2022-12-18T01:03:05;102260.66;;;-3.03;78.03
61086;BME280;46967;48.876;2.136;2022-12-18T01:05:31;102266.28;;;-3.08;77.91
61086;BME280;46967;48.876;2.136;2022-12-18T01:07:57;102256.91;;;-3.10;78.09
61086;BME280;46967;48.876;2.136;2022-12-18T01:10:22;102254.28;;;-3.11;77.41
61086;BME280;46967;48.876;2.136;2022-12-18T01:12:48;102252.72;;;-3.09;77.04
61086;BME280;46967;48.876;2.136;2022-12-18T01:15:15;102256.75;;;-3.13;76.82
61086;BME280;46967;48.876;2.136;2022-12-18T01:17:40;102255.03;;;-3.14;76.97
61086;BME280;46967;48.876;2.136;2022-12-18T01:20:06;102251.69;;;-3.13;76.35
61086;BME280;46967;48.876;2.136;2022-12-18T01:22:32;102253.13;;;-3.18;76.21
61086;BME280;46967;48.876;2.136;2022-12-18T01:24:57;102261.50;;;-3.20;76.36
61086;BME280;46967;48.876;2.136;2022-12-18T01:27:22;102267.28;;;-3.23;76.33
61086;BME280;46967;48.876;2.136;2022-12-18T01:29:49;102258.47;;;-3.30;76.39
61086;BME280;46967;48.876;2.136;2022-12-18T01:32:14;102256.72;;;-3.31;76.69
61086;BME280;46967;48.876;2.136;2022-12-18T01:34:39;102255.63;;;-3.36;77.00
61086;BME280;46967;48.876;2.136;2022-12-18T01:37:05;102260.56;;;-3.39;77.02
61086;BME280;46967;48.876;2.136;2022-12-18T01:39:31;102257.94;;;-3.40;77.29
61086;BME280;46967;48.876;2.136;2022-12-18T01:42:09;102253.72;;;-3.40;77.98
61086;BME280;46967;48.876;2.136;2022-12-18T01:47:44;102245.09;;;-3.43;77.73
61086;BME280;46967;48.876;2.136;2022-12-18T01:50:15;102239.84;;;-3.47;78.29
61086;BME280;46967;48.876;2.136;2022-12-18T01:52:54;102240.72;;;-3.46;78.76
61086;BME280;46967;48.876;2.136;2022-12-18T01:55:23;102237.16;;;-3.50;79.41
61086;BME280;46967;48.876;2.136;2022-12-18T01:57:52;102237.31;;;-3.47;79.52
61086;BME280;46967;48.876;2.136;2022-12-18T02:00:19;102237.38;;;-3.45;79.46
61086;BME280;46967;48.876;2.136;2022-12-18T02:02:46;102240.16;;;-3.40;79.10
61086;BME280;46967;48.876;2.136;2022-12-18T02:05:15;102231.75;;;-3.39;78.79
61086;BME280;46967;48.876;2.136;2022-12-18T02:08:06;102232.03;;;-3.33;78.75
61086;BME280;46967;48.876;2.136;2022-12-18T02:10:48;102223.47;;;-3.35;78.12
61086;BME280;46967;48.876;2.136;2022-12-18T02:15:52;102220.00;;;-3.37;79.14
61086;BME280;46967;48.876;2.136;2022-12-18T02:18:24;102211.56;;;-3.36;78.75
61086;BME280;46967;48.876;2.136;2022-12-18T02:21:04;102219.41;;;-3.32;78.27
61086;BME280;46967;48.876;2.136;2022-12-18T02:26:18;102206.25;;;-3.24;78.03
61086;BME280;46967;48.876;2.136;2022-12-18T02:28:52;102203.00;;;-3.22;77.29
61086;BME280;46967;48.876;2.136;2022-12-18T02:31:24;102206.47;;;-3.20;77.82
61086;BME280;46967;48.876;2.136;2022-12-18T02:33:53;102200.53;;;-3.20;77.57
61086;BME280;46967;48.876;2.136;2022-12-18T02:36:22;102204.78;;;-3.19;77.53
61086;BME280;46967;48.876;2.136;2022-12-18T02:38:48;102206.31;;;-3.23;77.56
61086;BME280;46967;48.876;2.136;2022-12-18T02:41:16;102202.03;;;-3.24;77.90
61086;BME280;46967;48.876;2.136;2022-12-18T02:43:47;102202.84;;;-3.25;78.55
61086;BME280;46967;48.876;2.136;2022-12-18T02:46:32;102199.63;;;-3.21;78.39
61086;BME280;46967;48.876;2.136;2022-12-18T02:52:05;102191.16;;;-3.21;78.29
61086;BME280;46967;48.876;2.136;2022-12-18T02:54:41;102185.34;;;-3.19;78.26
61086;BME280;46967;48.876;2.136;2022-12-18T02:57:38;102191.94;;;-3.22;78.63
61086;BME280;46967;48.876;2.136;2022-12-18T03:00:09;102186.06;;;-3.21;78.77
61086;BME280;46967;48.876;2.136;2022-12-18T03:05:40;102191.16;;;-3.21;78.57
61086;BME280;46967;48.876;2.136;2022-12-18T03:08:10;102197.03;;;-3.22;78.72
61086;BME280;46967;48.876;2.136;2022-12-18T03:10:43;102194.47;;;-3.22;78.59
61086;BME280;46967;48.876;2.136;2022-12-18T03:13:15;102197.25;;;-3.18;78.27
61086;BME280;46967;48.876;2.136;2022-12-18T03:15:48;102191.31;;;-3.18;78.12
61086;BME280;46967;48.876;2.136;2022-12-18T03:18:21;102193.19;;;-3.14;78.29
61086;BME280;46967;48.876;2.136;2022-12-18T03:20:49;102186.31;;;-3.17;78.26
61086;BME280;46967;48.876;2.136;2022-12-18T03:23:20;102190.41;;;-3.19;78.10
61086;BME280;46967;48.876;2.136;2022-12-18T03:25:46;102196.38;;;-3.18;78.36
61086;BME280;46967;48.876;2.136;2022-12-18T03:28:15;102193.84;;;-3.18;78.11
61086;BME280;46967;48.876;2.136;2022-12-18T03:30:43;102200.56;;;-3.19;78.05
61086;BME280;46967;48.876;2.136;2022-12-18T03:33:16;102199.00;;;-3.17;77.80
61086;BME280;46967;48.876;2.136;2022-12-18T03:35:45;102200.72;;;-3.16;77.33
61086;BME280;46967;48.876;2.136;2022-12-18T03:38:11;102186.31;;;-3.17;77.37
61086;BME280;46967;48.876;2.136;2022-12-18T03:41:03;102187.75;;;-3.22;77.99
61086;BME280;46967;48.876;2.136;2022-12-18T03:43:58;102179.41;;;-3.19;78.32
61086;BME280;46967;48.876;2.136;2022-12-18T03:46:28;102181.00;;;-3.21;78.60
61086;BME280;46967;48.876;2.136;2022-12-18T03:49:17;102172.72;;;-3.17;78.63
61086;BME280;46967;48.876;2.136;2022-12-18T03:54:26;102169.47;;;-3.15;78.17
61086;BME280;46967;48.876;2.136;2022-12-18T03:56:58;102167.00;;;-3.13;78.67
61086;BME280;46967;48.876;2.136;2022-12-18T03:59:27;102166.91;;;-3.15;78.56
61086;BME280;46967;48.876;2.136;2022-12-18T04:01:55;102155.91;;;-3.15;78.80
61086;BME280;46967;48.876;2.136;2022-12-18T04:04:24;102154.81;;;-3.20;79.17
61086;BME280;46967;48.876;2.136;2022-12-18T04:06:51;102159.06;;;-3.19;79.23
61086;BME280;46967;48.876;2.136;2022-12-18T04:09:19;102154.59;;;-3.25;79.38
61086;BME280;46967;48.876;2.136;2022-12-18T04:11:46;102159.53;;;-3.28;79.45
61086;BME280;46967;48.876;2.136;2022-12-18T04:14:11;102174.91;;;-3.25;79.42
61086;BME280;46967;48.876;2.136;2022-12-18T04:16:36;102163.94;;;-3.24;79.46
61086;BME280;46967;48.876;2.136;2022-12-18T04:19:02;102159.81;;;-3.22;78.75
61086;BME280;46967;48.876;2.136;2022-12-18T04:21:28;102156.25;;;-3.25;79.01
61086;BME280;46967;48.876;2.136;2022-12-18T04:23:53;102143.47;;;-3.27;79.29
61086;BME280;46967;48.876;2.136;2022-12-18T04:26:19;102132.44;;;-3.28;79.42
61086;BME280;46967;48.876;2.136;2022-12-18T04:28:44;102137.75;;;-3.23;79.02
61086;BME280;46967;48.876;2.136;2022-12-18T04:31:09;102136.66;;;-3.28;78.88
61086;BME280;46967;48.876;2.136;2022-12-18T04:33:35;102144.44;;;-3.25;78.95
61086;BME280;46967;48.876;2.136;2022-12-18T04:36:00;102148.53;;;-3.27;78.78
61086;BME280;46967;48.876;2.136;2022-12-18T04:38:25;102151.00;;;-3.29;79.15
61086;BME280;46967;48.876;2.136;2022-12-18T04:40:51;102165.75;;;-3.21;78.86
61086;BME280;46967;48.876;2.136;2022-12-18T04:43:16;102170.75;;;-3.23;78.61
61086;BME280;46967;48.876;2.136;2022-12-18T04:45:42;102172.44;;;-3.23;78.41
61086;BME280;46967;48.876;2.136;2022-12-18T04:48:07;102170.75;;;-3.23;78.45
61086;BME280;46967;48.876;2.136;2022-12-18T04:50:32;102169.31;;;-3.18;77.84
61086;BME280;46967;48.876;2.136;2022-12-18T04:52:58;102164.22;;;-3.18;78.45
61086;BME280;46967;48.876;2.136;2022-12-18T04:55:24;102159.22;;;-3.16;77.79
61086;BME280;46967;48.876;2.136;2022-12-18T04:57:50;102167.63;;;-3.17;77.93
61086;BME280;46967;48.876;2.136;2022-12-18T05:00:15;102159.16;;;-3.18;77.96
61086;BME280;46967;48.876;2.136;2022-12-18T05:02:41;102168.59;;;-3.15;78.12
61086;BME280;46967;48.876;2.136;2022-12-18T05:05:07;102172.88;;;-3.14;78.12
61086;BME280;46967;48.876;2.136;2022-12-18T05:07:32;102170.25;;;-3.16;78.36
61086;BME280;46967;48.876;2.136;2022-12-18T05:09:57;102165.03;;;-3.19;78.29
61086;BME280;46967;48.876;2.136;2022-12-18T05:12:23;102164.91;;;-3.22;78.69
61086;BME280;46967;48.876;2.136;2022-12-18T05:14:48;102179.31;;;-3.21;78.48
61086;BME280;46967;48.876;2.136;2022-12-18T05:17:14;102169.22;;;-3.19;78.31
61086;BME280;46967;48.876;2.136;2022-12-18T05:19:39;102177.59;;;-3.22;78.23
61086;BME280;46967;48.876;2.136;2022-12-18T05:22:04;102193.41;;;-3.28;78.13
61086;BME280;46967;48.876;2.136;2022-12-18T05:24:30;102203.63;;;-3.26;78.21
61086;BME280;46967;48.876;2.136;2022-12-18T05:26:55;102192.69;;;-3.25;77.74
61086;BME280;46967;48.876;2.136;2022-12-18T05:29:21;102197.91;;;-3.22;77.54
61086;BME280;46967;48.876;2.136;2022-12-18T05:31:46;102194.41;;;-3.24;77.68
61086;BME280;46967;48.876;2.136;2022-12-18T05:34:11;102189.25;;;-3.25;77.66
61086;BME280;46967;48.876;2.136;2022-12-18T05:36:37;102185.69;;;-3.29;77.69
61086;BME280;46967;48.876;2.136;2022-12-18T05:39:02;102183.00;;;-3.32;77.37
61086;BME280;46967;48.876;2.136;2022-12-18T05:41:28;102184.59;;;-3.34;77.78
61086;BME280;46967;48.876;2.136;2022-12-18T05:43:53;102175.25;;;-3.35;78.15
61086;BME280;46967;48.876;2.136;2022-12-18T05:46:19;102174.59;;;-3.31;78.05
61086;BME280;46967;48.876;2.136;2022-12-18T05:48:44;102181.31;;;-3.32;77.99
61086;BME280;46967;48.876;2.136;2022-12-18T05:51:14;102161.97;;;-3.30;77.67
61086;BME280;46967;48.876;2.136;2022-12-18T05:53:41;102154.13;;;-3.34;77.63
61086;BME280;46967;48.876;2.136;2022-12-18T05:56:10;102157.53;;;-3.34;77.78
61086;BME280;46967;48.876;2.136;2022-12-18T05:58:36;102153.09;;;-3.38;77.82
61086;BME280;46967;48.876;2.136;2022-12-18T06:01:14;102153.31;;;-3.33;78.23
61086;BME280;46967;48.876;2.136;2022-12-18T06:03:40;102158.41;;;-3.33;78.35
61086;BME280;46967;48.876;2.136;2022-12-18T06:06:13;102162.06;;;-3.28;78.32
61086;BME280;46967;48.876;2.136;2022-12-18T06:08:39;102162.84;;;-3.29;78.11
61086;BME280;46967;48.876;2.136;2022-12-18T06:11:05;102156.00;;;-3.30;78.35
61086;BME280;46967;48.876;2.136;2022-12-18T06:13:30;102158.69;;;-3.27;78.61
61086;BME280;46967;48.876;2.136;2022-12-18T06:15:56;102158.63;;;-3.29;78.77
61086;BME280;46967;48.876;2.136;2022-12-18T06:18:21;102154.50;;;-3.26;78.65
61086;BME280;46967;48.876;2.136;2022-12-18T06:20:56;102161.31;;;-3.25;78.64
61086;BME280;46967;48.876;2.136;2022-12-18T06:23:22;102158.06;;;-3.23;78.13
61086;BME280;46967;48.876;2.136;2022-12-18T06:25:48;102163.16;;;-3.23;78.18
61086;BME280;46967;48.876;2.136;2022-12-18T06:28:13;102161.53;;;-3.21;77.77
61086;BME280;46967;48.876;2.136;2022-12-18T06:30:38;102159.75;;;-3.23;77.82
61086;BME280;46967;48.876;2.136;2022-12-18T06:33:04;102156.91;;;-3.30;77.76
61086;BME280;46967;48.876;2.136;2022-12-18T06:35:29;102156.97;;;-3.28;77.79
61086;BME280;46967;48.876;2.136;2022-12-18T06:37:54;102149.22;;;-3.31;77.67
61086;BME280;46967;48.876;2.136;2022-12-18T06:40:20;102137.38;;;-3.31;77.30
61086;BME280;46967;48.876;2.136;2022-12-18T06:42:45;102138.91;;;-3.34;77.13
61086;BME280;46967;48.876;2.136;2022-12-18T06:45:11;102144.91;;;-3.32;77.41
61086;BME280;46967;48.876;2.136;2022-12-18T06:47:36;102141.44;;;-3.34;77.42
61086;BME280;46967;48.876;2.136;2022-12-18T06:50:02;102136.38;;;-3.34;77.36
61086;BME280;46967;48.876;2.136;2022-12-18T06:52:28;102132.22;;;-3.32;77.32
61086;BME280;46967;48.876;2.136;2022-12-18T06:54:53;102131.38;;;-3.33;77.49
61086;BME280;46967;48.876;2.136;2022-12-18T06:57:18;102139.06;;;-3.31;77.86
61086;BME280;46967;48.876;2.136;2022-12-18T06:59:43;102127.06;;;-3.34;77.86
61086;BME280;46967;48.876;2.136;2022-12-18T07:02:12;102122.63;;;-3.38;78.01
61086;BME280;46967;48.876;2.136;2022-12-18T07:04:37;102123.53;;;-3.37;78.08
61086;BME280;46967;48.876;2.136;2022-12-18T07:07:03;102123.66;;;-3.34;78.22
61086;BME280;46967;48.876;2.136;2022-12-18T07:09:28;102123.88;;;-3.30;78.22
61086;BME280;46967;48.876;2.136;2022-12-18T07:11:53;102120.47;;;-3.30;78.36
61086;BME280;46967;48.876;2.136;2022-12-18T07:14:19;102106.03;;;-3.31;78.61
61086;BME280;46967;48.876;2.136;2022-12-18T07:16:44;102109.44;;;-3.31;78.01
61086;BME280;46967;48.876;2.136;2022-12-18T07:19:09;102120.31;;;-3.33;78.21
61086;BME280;46967;48.876;2.136;2022-12-18T07:21:35;102111.84;;;-3.34;78.03
61086;BME280;46967;48.876;2.136;2022-12-18T07:24:00;102122.00;;;-3.34;78.01
61086;BME280;46967;48.876;2.136;2022-12-18T07:26:25;102122.22;;;-3.29;77.97
61086;BME280;46967;48.876;2.136;2022-12-18T07:28:55;102133.38;;;-3.25;77.63
61086;BME280;46967;48.876;2.136;2022-12-18T07:31:21;102118.06;;;-3.27;77.72
61086;BME280;46967;48.876;2.136;2022-12-18T07:33:47;102125.84;;;-3.24;77.38
61086;BME280;46967;48.876;2.136;2022-12-18T07:36:13;102122.66;;;-3.20;77.32
61086;BME280;46967;48.876;2.136;2022-12-18T07:38:39;102108.66;;;-3.30;77.17
61086;BME280;46967;48.876;2.136;2022-12-18T07:43:32;102138.75;;;-3.37;77.71
61086;BME280;46967;48.876;2.136;2022-12-18T07:45:58;102142.00;;;-3.40;78.04
61086;BME280;46967;48.876;2.136;2022-12-18T07:48:23;102140.47;;;-3.36;77.55
61086;BME280;46967;48.876;2.136;2022-12-18T07:50:48;102135.69;;;-3.30;77.73
61086;BME280;46967;48.876;2.136;2022-12-18T07:53:14;102138.38;;;-3.27;77.39
61086;BME280;46967;48.876;2.136;2022-12-18T07:55:40;102136.00;;;-3.24;77.23
61086;BME280;46967;48.876;2.136;2022-12-18T07:58:06;102132.38;;;-3.29;77.05
61086;BME280;46967;48.876;2.136;2022-12-18T08:00:32;102128.16;;;-3.29;77.31
61086;BME280;46967;48.876;2.136;2022-12-18T08:02:57;102126.22;;;-3.34;77.38
61086;BME280;46967;48.876;2.136;2022-12-18T08:05:23;102128.59;;;-3.37;77.35
61086;BME280;46967;48.876;2.136;2022-12-18T08:07:48;102127.00;;;-3.35;77.55
61086;BME280;46967;48.876;2.136;2022-12-18T08:10:14;102111.91;;;-3.32;77.51
61086;BME280;46967;48.876;2.136;2022-12-18T08:12:39;102113.00;;;-3.27;77.10
61086;BME280;46967;48.876;2.136;2022-12-18T08:15:11;102119.03;;;-3.25;77.34
61086;BME280;46967;48.876;2.136;2022-12-18T08:17:36;102120.13;;;-3.20;76.87
61086;BME280;46967;48.876;2.136;2022-12-18T08:20:02;102133.47;;;-3.24;77.24
61086;BME280;46967;48.876;2.136;2022-12-18T08:22:28;102132.06;;;-3.17;77.23
61086;BME280;46967;48.876;2.136;2022-12-18T08:24:53;102136.28;;;-3.18;77.29
61086;BME280;46967;48.876;2.136;2022-12-18T08:27:19;102139.91;;;-3.13;77.68
61086;BME280;46967;48.876;2.136;2022-12-18T08:29:44;102137.53;;;-3.10;77.42
61086;BME280;46967;48.876;2.136;2022-12-18T08:32:09;102138.72;;;-3.03;77.59
61086;BME280;46967;48.876;2.136;2022-12-18T08:34:35;102130.34;;;-3.00;77.69
61086;BME280;46967;48.876;2.136;2022-12-18T08:37:00;102138.31;;;-2.93;77.05
61086;BME280;46967;48.876;2.136;2022-12-18T08:39:26;102154.81;;;-3.02;75.63
61086;BME280;46967;48.876;2.136;2022-12-18T08:41:51;102134.63;;;-3.17;76.05
61086;BME280;46967;48.876;2.136;2022-12-18T08:44:35;102157.69;;;-3.13;76.93
61086;BME280;46967;48.876;2.136;2022-12-18T08:47:05;102148.72;;;-3.06;76.76
61086;BME280;46967;48.876;2.136;2022-12-18T08:49:30;102153.34;;;-2.97;76.48
61086;BME280;46967;48.876;2.136;2022-12-18T08:51:56;102153.66;;;-2.91;76.73
61086;BME280;46967;48.876;2.136;2022-12-18T08:54:25;102153.22;;;-2.82;76.55
61086;BME280;46967;48.876;2.136;2022-12-18T08:56:51;102146.66;;;-2.77;76.45
61086;BME280;46967;48.876;2.136;2022-12-18T08:59:17;102142.81;;;-2.69;75.69
61086;BME280;46967;48.876;2.136;2022-12-18T09:01:43;102150.44;;;-2.69;75.57
61086;BME280;46967;48.876;2.136;2022-12-18T09:04:11;102147.16;;;-2.66;75.32
61086;BME280;46967;48.876;2.136;2022-12-18T09:06:37;102152.41;;;-2.63;75.69
61086;BME280;46967;48.876;2.136;2022-12-18T09:09:04;102149.25;;;-2.58;75.68
61086;BME280;46967;48.876;2.136;2022-12-18T09:11:31;102145.91;;;-2.57;75.41
61086;BME280;46967;48.876;2.136;2022-12-18T09:13:57;102146.84;;;-2.55;74.98
61086;BME280;46967;48.876;2.136;2022-12-18T09:16:24;102140.22;;;-2.51;75.00
61086;BME280;46967;48.876;2.136;2022-12-18T09:18:50;102138.72;;;-2.47;75.16
61086;BME280;46967;48.876;2.136;2022-12-18T09:21:18;102143.66;;;-2.50;74.84
61086;BME280;46967;48.876;2.136;2022-12-18T09:23:51;102145.66;;;-2.43;74.69
61086;BME280;46967;48.876;2.136;2022-12-18T09:26:17;102145.31;;;-2.51;75.36
61086;BME280;46967;48.876;2.136;2022-12-18T09:28:42;102130.25;;;-2.46;74.95
61086;BME280;46967;48.876;2.136;2022-12-18T09:31:10;102125.03;;;-2.49;74.80
61086;BME280;46967;48.876;2.136;2022-12-18T09:33:35;102130.03;;;-2.51;75.22
61086;BME280;46967;48.876;2.136;2022-12-18T09:36:03;102130.31;;;-2.45;74.79
61086;BME280;46967;48.876;2.136;2022-12-18T09:38:29;102134.56;;;-2.45;75.09
61086;BME280;46967;48.876;2.136;2022-12-18T09:43:52;102132.50;;;-2.34;75.79
61086;BME280;46967;48.876;2.136;2022-12-18T09:46:35;102135.69;;;-2.19;75.08
61086;BME280;46967;48.876;2.136;2022-12-18T09:49:05;102131.41;;;-2.20;74.43
61086;BME280;46967;48.876;2.136;2022-12-18T09:51:36;102126.13;;;-2.25;74.83
61086;BME280;46967;48.876;2.136;2022-12-18T09:54:06;102119.50;;;-2.21;74.85
61086;BME280;46967;48.876;2.136;2022-12-18T09:56:35;102125.66;;;-2.16;74.20
61086;BME280;46967;48.876;2.136;2022-12-18T09:59:03;102132.56;;;-2.13;74.75
61086;BME280;46967;48.876;2.136;2022-12-18T10:01:30;102126.13;;;-2.05;74.18
61086;BME280;46967;48.876;2.136;2022-12-18T10:03:56;102124.44;;;-2.05;74.29
61086;BME280;46967;48.876;2.136;2022-12-18T10:06:39;102132.34;;;-1.98;74.42
61086;BME280;46967;48.876;2.136;2022-12-18T10:09:28;102129.78;;;-1.98;74.58
61086;BME280;46967;48.876;2.136;2022-12-18T10:12:08;102131.88;;;-1.90;74.75
61086;BME280;46967;48.876;2.136;2022-12-18T10:20:05;102119.03;;;-1.72;73.52
61086;BME280;46967;48.876;2.136;2022-12-18T10:22:47;102111.41;;;-1.72;73.30
61086;BME280;46967;48.876;2.136;2022-12-18T10:27:47;102103.03;;;-1.69;73.63
61086;BME280;46967;48.876;2.136;2022-12-18T10:30:19;102102.78;;;-1.54;73.90
61086;BME280;46967;48.876;2.136;2022-12-18T10:32:45;102099.75;;;-1.46;74.20
61086;BME280;46967;48.876;2.136;2022-12-18T10:35:26;102108.63;;;-1.36;73.92
61086;BME280;46967;48.876;2.136;2022-12-18T10:43:39;102095.91;;;-1.13;73.04
61086;BME280;46967;48.876;2.136;2022-12-18T10:48:40;102083.59;;;-1.02;72.29
61086;BME280;46967;48.876;2.136;2022-12-18T10:54:03;102087.28;;;-0.94;72.52
61086;BME280;46967;48.876;2.136;2022-12-18T10:56:31;102099.59;;;-0.84;72.55
61086;BME280;46967;48.876;2.136;2022-12-18T10:59:07;102092.22;;;-0.76;73.12
61086;BME280;46967;48.876;2.136;2022-12-18T11:01:54;102088.16;;;-0.71;72.55
61086;BME280;46967;48.876;2.136;2022-12-18T11:04:26;102084.66;;;-0.73;72.35
61086;BME280;46967;48.876;2.136;2022-12-18T11:09:23;102089.31;;;-0.63;71.94
61086;BME280;46967;48.876;2.136;2022-12-18T11:11:51;102085.84;;;-0.65;71.91
61086;BME280;46967;48.876;2.136;2022-12-18T11:14:22;102085.00;;;-0.64;71.44
61086;BME280;46967;48.876;2.136;2022-12-18T11:16:49;102079.91;;;-0.64;71.62
61086;BME280;46967;48.876;2.136;2022-12-18T11:21:54;102066.31;;;-0.64;71.46
61086;BME280;46967;48.876;2.136;2022-12-18T11:24:33;102066.41;;;-0.61;71.31
61086;BME280;46967;48.876;2.136;2022-12-18T11:27:01;102066.47;;;-0.60;71.52
61086;BME280;46967;48.876;2.136;2022-12-18T11:29:35;102063.31;;;-0.52;71.70
61086;BME280;46967;48.876;2.136;2022-12-18T11:35:03;102055.03;;;-0.47;70.82
61086;BME280;46967;48.876;2.136;2022-12-18T11:37:29;102055.66;;;-0.52;70.68
61086;BME280;46967;48.876;2.136;2022-12-18T11:40:09;102055.59;;;-0.54;70.96
61086;BME280;46967;48.876;2.136;2022-12-18T11:42:46;102048.00;;;-0.52;70.96
61086;BME280;46967;48.876;2.136;2022-12-18T11:50:29;102035.59;;;-0.43;71.63
61086;BME280;46967;48.876;2.136;2022-12-18T11:52:57;102029.13;;;-0.33;71.90
61086;BME280;46967;48.876;2.136;2022-12-18T12:00:50;102017.69;;;-0.21;70.37
61086;BME280;46967;48.876;2.136;2022-12-18T12:12:21;101998.59;;;-0.06;69.92
61086;BME280;46967;48.876;2.136;2022-12-18T12:21:09;101990.81;;;-0.09;70.29
61086;BME280;46967;48.876;2.136;2022-12-18T12:23:57;102000.34;;;-0.04;70.11
61086;BME280;46967;48.876;2.136;2022-12-18T12:39:13;101983.84;;;0.40;70.02
61086;BME280;46967;48.876;2.136;2022-12-18T12:41:42;101980.75;;;0.50;70.42
61086;BME280;46967;48.876;2.136;2022-12-18T12:44:32;101992.53;;;0.45;70.17
61086;BME280;46967;48.876;2.136;2022-12-18T12:47:03;101984.78;;;0.42;70.31
61086;BME280;46967;48.876;2.136;2022-12-18T12:49:33;101983.13;;;0.44;70.33
61086;BME280;46967;48.876;2.136;2022-12-18T12:52:06;101979.00;;;0.49;69.50
61086;BME280;46967;48.876;2.136;2022-12-18T12:54:33;101968.03;;;0.51;69.20
61086;BME280;46967;48.876;2.136;2022-12-18T12:57:14;101968.06;;;0.53;69.39
61086;BME280;46967;48.876;2.136;2022-12-18T13:00:11;101957.94;;;0.56;69.67
61086;BME280;46967;48.876;2.136;2022-12-18T13:05:52;101958.66;;;0.52;70.12
61086;BME280;46967;48.876;2.136;2022-12-18T13:08:30;101947.63;;;0.53;70.01
61086;BME280;46967;48.876;2.136;2022-12-18T13:10:57;101955.25;;;0.51;70.12
61086;BME280;46967;48.876;2.136;2022-12-18T13:13:49;101949.16;;;0.46;70.17
61086;BME280;46967;48.876;2.136;2022-12-18T13:16:19;101950.97;;;0.50;70.37
61086;BME280;46967;48.876;2.136;2022-12-18T13:18:52;101948.44;;;0.52;70.29
61086;BME280;46967;48.876;2.136;2022-12-18T13:21:33;101943.34;;;0.52;69.86
61086;BME280;46967;48.876;2.136;2022-12-18T13:24:31;101938.47;;;0.60;70.29
61086;BME280;46967;48.876;2.136;2022-12-18T13:26:57;101928.91;;;0.52;70.20
61086;BME280;46967;48.876;2.136;2022-12-18T13:29:42;101923.88;;;0.56;70.26
61086;BME280;46967;48.876;2.136;2022-12-18T13:32:22;101927.34;;;0.58;70.41
61086;BME280;46967;48.876;2.136;2022-12-18T13:34:48;101932.50;;;0.59;70.25
61086;BME280;46967;48.876;2.136;2022-12-18T13:39:57;101927.53;;;0.64;70.45
61086;BME280;46967;48.876;2.136;2022-12-18T13:42:34;101912.47;;;0.73;70.25
61086;BME280;46967;48.876;2.136;2022-12-18T13:48:27;101900.72;;;0.80;70.57
61086;BME280;46967;48.876;2.136;2022-12-18T13:51:03;101895.56;;;0.78;70.86
61086;BME280;46967;48.876;2.136;2022-12-18T13:53:50;101888.75;;;0.79;70.76
61086;BME280;46967;48.876;2.136;2022-12-18T13:56:17;101881.19;;;0.83;71.44
61086;BME280;46967;48.876;2.136;2022-12-18T13:58:42;101883.81;;;0.85;71.35
61086;BME280;46967;48.876;2.136;2022-12-18T14:01:23;101875.25;;;0.83;71.60
61086;BME280;46967;48.876;2.136;2022-12-18T14:03:49;101880.25;;;0.80;71.69
61086;BME280;46967;48.876;2.136;2022-12-18T14:06:16;101875.09;;;0.78;71.99
61086;BME280;46967;48.876;2.136;2022-12-18T14:08:42;101881.00;;;0.76;72.28
61086;BME280;46967;48.876;2.136;2022-12-18T14:11:22;101880.13;;;0.75;72.35
61086;BME280;46967;48.876;2.136;2022-12-18T14:13:47;101877.91;;;0.87;72.40
61086;BME280;46967;48.876;2.136;2022-12-18T14:16:14;101875.16;;;0.80;72.60
61086;BME280;46967;48.876;2.136;2022-12-18T14:18:45;101874.34;;;0.82;72.88
61086;BME280;46967;48.876;2.136;2022-12-18T14:21:23;101866.63;;;0.81;73.08
61086;BME280;46967;48.876;2.136;2022-12-18T14:24:23;101870.16;;;0.84;73.41
61086;BME280;46967;48.876;2.136;2022-12-18T14:26:49;101868.59;;;0.89;73.47
61086;BME280;46967;48.876;2.136;2022-12-18T14:29:26;101854.25;;;0.95;73.70
61086;BME280;46967;48.876;2.136;2022-12-18T14:34:39;101852.41;;;0.89;74.34
61086;BME280;46967;48.876;2.136;2022-12-18T14:37:09;101866.84;;;0.88;74.63
61086;BME280;46967;48.876;2.136;2022-12-18T14:39:35;101857.59;;;0.92;75.00
61086;BME280;46967;48.876;2.136;2022-12-18T14:42:00;101861.81;;;0.92;75.34